Time;durP1;ratioP1;P1;durP2;ratioP2;P2;SDS_P1;SDS_P2;PMS_P1;PMS_P2;Temp;Humidity;BMP_temperature;BMP_pressure;BME280_temperature;BME280_humidity;BME280_pressure;Samples;Min_cycle;Max_cycle;Signal;HPM_P1;HPM_P2
2024/01/18 00:00:33;;;;;;;0.82;0.82;;;;;;;4.78;90.97;93994.03;5030294;28;20204;-79
2024/01/18 00:03:02;;;;;;;0.85;0.85;;;;;;;4.68;91.67;94002.31;5029411;28;20204;-79
2024/01/18 00:05:29;;;;;;;0.20;0.20;;;;;;;4.79;92.27;93998.28;5031238;28;20564;-78
2024/01/18 00:07:56;;;;;;;0.20;0.20;;;;;;;4.71;92.34;93990.19;5030248;28;20257;-78
2024/01/18 00:10:26;;;;;;;0.60;0.60;;;;;;;4.87;92.31;94005.59;5030359;28;20682;-79
2024/01/18 00:12:54;;;;;;;0.20;0.20;;;;;;;4.71;92.44;93984.81;5030101;28;20224;-79
2024/01/18 00:15:21;;;;;;;0.20;0.20;;;;;;;4.37;94.27;93974.66;5030125;28;20208;-79
2024/01/18 00:17:48;;;;;;;0.20;0.20;;;;;;;4.24;94.63;93976.28;5026097;28;20208;-78
2024/01/18 00:20:16;;;;;;;0.40;0.40;;;;;;;4.08;95.92;93967.81;5030061;28;20211;-79
2024/01/18 00:22:43;;;;;;;0.40;0.40;;;;;;;4.36;96.36;93970.41;5030147;28;20719;-78
2024/01/18 00:25:10;;;;;;;0.70;0.70;;;;;;;4.40;96.57;93976.72;5033961;28;20204;-78
2024/01/18 00:27:37;;;;;;;0.20;0.20;;;;;;;4.53;96.90;93978.53;5033629;28;20204;-77
2024/01/18 00:30:06;;;;;;;0.20;0.20;;;;;;;4.68;97.26;93980.84;5033930;28;20204;-79
2024/01/18 00:32:33;;;;;;;0.35;0.35;;;;;;;4.70;96.37;93978.66;5033687;28;20232;-78
2024/01/18 00:35:00;;;;;;;0.85;0.85;;;;;;;4.44;95.96;93973.13;5033781;28;20197;-78
2024/01/18 00:37:29;;;;;;;0.50;0.50;;;;;;;4.40;97.42;93972.16;5030881;28;20243;-78
2024/01/18 00:39:56;;;;;;;0.70;0.70;;;;;;;4.69;97.60;93969.03;5023018;28;20204;-78
2024/01/18 00:42:23;;;;;;;0.43;0.43;;;;;;;4.87;98.01;93973.41;5032665;28;20568;-80
2024/01/18 00:44:50;;;;;;;0.50;0.50;;;;;;;4.88;96.88;93953.50;5034124;28;20204;-80
2024/01/18 00:47:17;;;;;;;0.30;0.30;;;;;;;5.15;97.13;93967.84;5033891;28;20231;-80
2024/01/18 00:49:44;;;;;;;0.75;0.75;;;;;;;4.92;96.06;93981.28;5034075;28;20219;-81
2024/01/18 00:52:11;;;;;;;0.40;0.40;;;;;;;4.80;96.17;93959.63;5037695;28;20656;-82
2024/01/18 00:54:39;;;;;;;0.30;0.30;;;;;;;4.70;97.45;93967.94;5042996;28;20208;-81
2024/01/18 00:57:06;;;;;;;0.93;0.60;;;;;;;4.65;97.15;93965.34;5033995;28;20216;-80
2024/01/18 00:59:33;;;;;;;0.20;0.20;;;;;;;4.37;99.07;93953.22;5043520;28;20204;-80
2024/01/18 01:01:59;;;;;;;0.35;0.35;;;;;;;4.58;99.33;93962.34;5037493;28;20641;-81
2024/01/18 01:04:26;;;;;;;0.35;0.35;;;;;;;4.76;97.72;93950.63;5034247;28;20208;-81
2024/01/18 01:06:55;;;;;;;0.20;0.20;;;;;;;4.73;98.14;93943.19;5032336;28;20314;-81
2024/01/18 01:09:22;;;;;;;0.80;0.43;;;;;;;4.28;98.34;93939.72;5032928;28;20212;-80
2024/01/18 01:11:52;;;;;;;0.80;0.80;;;;;;;4.49;100.00;93946.19;5033212;28;20246;-81
2024/01/18 01:14:21;;;;;;;0.20;0.20;;;;;;;4.60;100.00;93942.16;5033162;28;20216;-79
2024/01/18 01:16:48;;;;;;;0.45;0.45;;;;;;;4.74;100.00;93930.56;5033112;28;20212;-80
2024/01/18 01:19:15;;;;;;;0.20;0.20;;;;;;;4.83;100.00;93928.69;5044335;28;20207;-81
2024/01/18 01:21:42;;;;;;;0.20;0.20;;;;;;;4.58;99.03;93922.09;5047509;28;20208;-80
2024/01/18 01:24:08;;;;;;;0.93;0.93;;;;;;;4.76;100.00;93907.69;5032674;28;20212;-80
2024/01/18 01:26:35;;;;;;;0.43;0.43;;;;;;;4.82;100.00;93906.44;5032742;28;20583;-80
2024/01/18 01:29:04;;;;;;;1.65;1.52;;;;;;;4.96;100.00;93896.41;5033307;28;20507;-78
2024/01/18 01:31:31;;;;;;;0.20;0.20;;;;;;;4.96;100.00;93885.66;5032697;28;20222;-79
2024/01/18 01:33:58;;;;;;;0.20;0.20;;;;;;;4.98;100.00;93871.94;5032424;28;20223;-78
2024/01/18 01:36:25;;;;;;;0.73;0.73;;;;;;;4.68;100.00;93873.56;5033294;28;20212;-79
2024/01/18 01:38:52;;;;;;;0.28;0.28;;;;;;;4.53;100.00;93888.16;5032839;28;20204;-81
2024/01/18 01:41:19;;;;;;;0.20;0.20;;;;;;;4.70;100.00;93898.19;5033822;28;20220;-81
2024/01/18 01:43:59;;;;;;;0.32;0.32;;;;;;;4.80;100.00;93897.13;5032882;28;20639;-79
2024/01/18 01:46:28;;;;;;;0.68;0.68;;;;;;;4.48;100.00;93898.25;5032874;28;20355;-81
2024/01/18 01:48:58;;;;;;;2.53;1.98;;;;;;;4.55;100.00;93875.22;5032606;28;20212;-80
2024/01/18 01:51:25;;;;;;;0.20;0.20;;;;;;;4.53;100.00;93882.00;5032386;28;20242;-79
2024/01/18 01:53:53;;;;;;;0.20;0.20;;;;;;;4.73;100.00;93860.03;5031869;28;20204;-79
2024/01/18 01:56:20;;;;;;;0.20;0.20;;;;;;;4.79;100.00;93864.13;5032741;28;20212;-79
2024/01/18 01:58:49;;;;;;;0.20;0.20;;;;;;;4.87;100.00;93866.06;5032648;28;20620;-79
2024/01/18 02:01:15;;;;;;;0.20;0.20;;;;;;;4.49;100.00;93851.56;5032405;28;20208;-79
2024/01/18 02:03:44;;;;;;;0.60;0.60;;;;;;;4.91;100.00;93869.72;5031785;28;20200;-77
2024/01/18 02:06:11;;;;;;;0.60;0.60;;;;;;;4.95;100.00;93846.50;5032661;28;20223;-79
2024/01/18 02:08:38;;;;;;;1.17;1.08;;;;;;;4.68;100.00;93860.16;5031833;28;20204;-79
2024/01/18 02:11:06;;;;;;;1.45;1.05;;;;;;;4.78;100.00;93872.50;5032640;28;20679;-77
2024/01/18 02:13:34;;;;;;;0.30;0.30;;;;;;;4.73;100.00;93867.28;5031922;28;20247;-78
2024/01/18 02:16:02;;;;;;;0.35;0.35;;;;;;;4.87;100.00;93865.28;5032293;28;20225;-78
2024/01/18 02:18:29;;;;;;;0.77;0.77;;;;;;;4.91;100.00;93859.00;5032636;28;20212;-77
2024/01/18 02:20:57;;;;;;;0.20;0.20;;;;;;;4.92;100.00;93863.22;5032177;28;20204;-78
2024/01/18 02:23:27;;;;;;;1.40;1.30;;;;;;;4.79;100.00;93857.97;5032159;28;20575;-78
2024/01/18 02:25:56;;;;;;;1.10;1.00;;;;;;;4.88;100.00;93840.03;5031908;28;20208;-78
2024/01/18 02:28:22;;;;;;;0.75;0.75;;;;;;;4.87;100.00;93849.97;5032630;28;20208;-78
2024/01/18 02:30:49;;;;;;;0.30;0.30;;;;;;;4.68;100.00;93843.25;5032003;28;20231;-79
2024/01/18 02:33:16;;;;;;;0.40;0.40;;;;;;;4.55;100.00;93842.25;5031784;28;20253;-78
2024/01/18 02:35:43;;;;;;;0.10;0.10;;;;;;;4.53;100.00;93860.53;5031675;28;20595;-78
2024/01/18 02:38:10;;;;;;;2.25;2.05;;;;;;;4.20;100.00;93827.91;5031897;28;20614;-80
2024/01/18 02:40:36;;;;;;;0.20;0.20;;;;;;;4.31;100.00;93821.19;5031722;28;20657;-78
2024/01/18 02:43:06;;;;;;;0.70;0.70;;;;;;;4.61;100.00;93831.09;5031612;28;20208;-78
2024/01/18 02:45:33;;;;;;;0.20;0.20;;;;;;;4.73;100.00;93827.81;5031296;28;20588;-78
2024/01/18 02:48:00;;;;;;;0.20;0.20;;;;;;;4.75;100.00;93806.84;5029371;28;20228;-79
2024/01/18 02:50:27;;;;;;;0.20;0.20;;;;;;;4.70;100.00;93823.09;5031666;28;20287;-78
2024/01/18 02:52:53;;;;;;;0.20;0.20;;;;;;;4.55;100.00;93815.44;5031330;28;20921;-79
2024/01/18 02:55:20;;;;;;;0.45;0.45;;;;;;;4.72;100.00;93799.41;5031481;28;20211;-77
2024/01/18 02:57:47;;;;;;;0.20;0.20;;;;;;;4.70;100.00;93811.56;5032393;28;20261;-79
2024/01/18 03:00:16;;;;;;;0.60;0.50;;;;;;;4.55;100.00;93797.47;5031744;28;20208;-79
2024/01/18 03:02:43;;;;;;;0.82;0.82;;;;;;;4.45;100.00;93829.94;5031752;28;20204;-80
2024/01/18 03:05:09;;;;;;;5.88;1.40;;;;;;;4.62;100.00;93830.00;5031347;28;20574;-79
2024/01/18 03:07:36;;;;;;;0.20;0.20;;;;;;;4.27;100.00;93802.22;5031736;28;20243;-79
2024/01/18 03:10:03;;;;;;;0.40;0.40;;;;;;;4.45;100.00;93813.03;5032047;28;20318;-79
2024/01/18 03:12:34;;;;;;;0.82;0.70;;;;;;;4.04;100.00;93781.94;5031568;28;20236;-78
2024/01/18 03:15:01;;;;;;;3.10;1.10;;;;;;;4.11;100.00;93801.03;5013638;28;20216;-78
2024/01/18 03:17:29;;;;;;;0.40;0.40;;;;;;;4.12;100.00;93824.06;5030093;28;20204;-78
2024/01/18 03:19:56;;;;;;;0.20;0.20;;;;;;;4.04;100.00;93830.19;5031225;28;20582;-78
2024/01/18 03:22:23;;;;;;;1.95;1.85;;;;;;;3.87;100.00;93822.03;5031833;28;20208;-79
2024/01/18 03:24:51;;;;;;;0.20;0.20;;;;;;;4.17;100.00;93825.84;5030992;28;20220;-78
2024/01/18 03:27:18;;;;;;;0.20;0.20;;;;;;;3.96;100.00;93806.81;5031016;28;20322;-80
2024/01/18 03:29:45;;;;;;;0.43;0.43;;;;;;;4.07;100.00;93826.88;5031550;28;20246;-80
2024/01/18 03:32:12;;;;;;;0.20;0.20;;;;;;;4.02;100.00;93824.31;5013480;28;20244;-80
2024/01/18 03:34:40;;;;;;;0.98;0.93;;;;;;;3.73;100.00;93799.88;5031685;28;20608;-79
2024/01/18 03:37:07;;;;;;;0.28;0.28;;;;;;;3.88;100.00;93848.50;5030612;28;20266;-80
2024/01/18 03:39:36;;;;;;;0.35;0.35;;;;;;;3.98;100.00;93812.63;5031222;28;20541;-80
2024/01/18 03:42:03;;;;;;;0.20;0.20;;;;;;;3.97;100.00;93816.41;5031028;28;20247;-79
2024/01/18 03:44:30;;;;;;;1.17;1.10;;;;;;;4.19;100.00;93827.13;5031110;28;20576;-79
2024/01/18 03:46:59;;;;;;;0.20;0.20;;;;;;;3.78;100.00;93792.50;5030774;28;20224;-80
2024/01/18 03:49:26;;;;;;;0.63;0.63;;;;;;;3.99;100.00;93822.25;5030469;28;20219;-78
2024/01/18 03:51:55;;;;;;;0.20;0.20;;;;;;;3.88;100.00;93802.19;5031310;28;20576;-78
2024/01/18 03:54:21;;;;;;;0.20;0.20;;;;;;;4.12;100.00;93823.28;5030439;28;20599;-78
2024/01/18 03:56:49;;;;;;;0.20;0.20;;;;;;;4.16;100.00;93814.31;5030534;28;20204;-78
2024/01/18 03:59:15;;;;;;;0.25;0.25;;;;;;;4.37;100.00;93824.53;5033541;28;20220;-78
2024/01/18 04:01:43;;;;;;;0.20;0.20;;;;;;;4.14;100.00;93800.44;5034555;28;20258;-79
2024/01/18 04:04:10;;;;;;;0.52;0.52;;;;;;;3.87;100.00;93800.59;5034600;28;20196;-81
2024/01/18 04:06:37;;;;;;;0.28;0.28;;;;;;;3.93;100.00;93821.59;5034576;28;20215;-79
2024/01/18 04:09:06;;;;;;;0.50;0.50;;;;;;;3.73;100.00;93795.31;5034614;28;20216;-80
2024/01/18 04:11:33;;;;;;;0.38;0.35;;;;;;;3.89;100.00;93822.50;5034537;28;20266;-80
2024/01/18 04:14:00;;;;;;;1.65;1.55;;;;;;;3.71;100.00;93821.59;5034406;28;20228;-81
2024/01/18 04:16:29;;;;;;;0.50;0.50;;;;;;;7.70;100.00;93787.78;5035118;28;20568;-77
2024/01/18 04:18:56;;;;;;;1.27;1.17;;;;;;;5.11;100.00;93795.09;5034398;28;20291;-79
2024/01/18 04:21:23;;;;;;;0.20;0.20;;;;;;;8.46;100.00;93798.19;5034988;28;20208;-77
2024/01/18 04:23:49;;;;;;;1.00;0.85;;;;;;;6.83;100.00;93811.00;5034899;28;20604;-82
2024/01/18 04:26:20;;;;;;;0.20;0.20;;;;;;;6.16;100.00;93800.94;5034290;28;20206;-81
2024/01/18 04:28:47;;;;;;;1.80;1.52;;;;;;;5.49;100.00;93822.13;5034546;28;20295;-82
2024/01/18 04:31:14;;;;;;;1.17;1.08;;;;;;;5.20;100.00;93841.50;5034547;28;20208;-82
2024/01/18 04:33:40;;;;;;;0.35;0.35;;;;;;;4.56;100.00;93841.16;5034565;28;20722;-82
2024/01/18 04:36:08;;;;;;;0.40;0.40;;;;;;;4.18;100.00;93817.50;5034918;28;20611;-82
2024/01/18 04:38:35;;;;;;;1.73;1.50;;;;;;;4.26;100.00;93832.81;5034407;28;20216;-83
2024/01/18 04:41:02;;;;;;;0.20;0.20;;;;;;;4.46;100.00;93828.81;5037190;28;20614;-82
2024/01/18 04:43:30;;;;;;;0.25;0.25;;;;;;;4.39;100.00;93844.56;5035041;28;20208;-81
2024/01/18 04:45:57;;;;;;;0.57;0.57;;;;;;;4.31;100.00;93801.63;5034166;28;20220;-81
2024/01/18 04:48:24;;;;;;;0.30;0.30;;;;;;;3.99;100.00;93787.44;5043271;28;20204;-81
2024/01/18 04:50:51;;;;;;;0.20;0.20;;;;;;;4.32;100.00;93819.28;5034786;28;20204;-82
2024/01/18 04:53:18;;;;;;;0.15;0.15;;;;;;;4.11;100.00;93806.41;5034519;28;20240;-80
2024/01/18 04:55:45;;;;;;;0.50;0.50;;;;;;;3.99;100.00;93792.00;5035201;28;20208;-81
2024/01/18 04:58:12;;;;;;;0.70;0.70;;;;;;;4.18;100.00;93833.56;5033953;28;20215;-81
2024/01/18 05:00:40;;;;;;;2.50;0.50;;;;;;;4.05;100.00;93796.94;5034008;28;20208;-80
2024/01/18 05:03:08;;;;;;;0.20;0.20;;;;;;;4.09;100.00;93808.63;5033495;28;20211;-82
2024/01/18 05:05:37;;;;;;;0.57;0.57;;;;;;;4.15;100.00;93812.75;5034608;28;20239;-82
2024/01/18 05:08:04;;;;;;;1.95;0.93;;;;;;;4.01;100.00;93812.03;5033846;28;20367;-82
2024/01/18 05:10:31;;;;;;;1.77;1.13;;;;;;;4.12;100.00;93802.63;5014087;28;20204;-84
2024/01/18 05:12:58;;;;;;;0.35;0.35;;;;;;;4.07;100.00;93805.44;5030371;28;20230;-83
2024/01/18 05:15:25;;;;;;;0.63;0.63;;;;;;;4.10;100.00;93842.34;5033794;28;20855;-81
2024/01/18 05:17:55;;;;;;;1.85;1.75;;;;;;;3.97;100.00;93827.13;5033665;28;20244;-80
2024/01/18 05:20:22;;;;;;;1.05;1.05;;;;;;;3.99;100.00;93841.00;5033818;28;20216;-80
2024/01/18 05:22:49;;;;;;;0.38;0.38;;;;;;;4.18;100.00;93796.06;5033312;28;20208;-80
2024/01/18 05:25:16;;;;;;;0.20;0.20;;;;;;;4.22;100.00;93813.09;5034033;28;20208;-79
2024/01/18 05:27:42;;;;;;;0.50;0.50;;;;;;;4.15;100.00;93850.25;5033189;28;20200;-79
2024/01/18 05:30:10;;;;;;;0.75;0.75;;;;;;;4.16;100.00;93814.31;5032447;28;20213;-77
2024/01/18 05:32:37;;;;;;;0.40;0.40;;;;;;;4.46;100.00;93850.28;5033102;28;20600;-81
2024/01/18 05:35:06;;;;;;;0.50;0.50;;;;;;;4.44;100.00;93857.03;5034320;28;20204;-79
2024/01/18 05:37:33;;;;;;;0.65;0.40;;;;;;;4.12;100.00;93829.44;5033540;28;20216;-80
2024/01/18 05:40:00;;;;;;;0.20;0.20;;;;;;;4.23;100.00;93840.69;5033694;28;20209;-81
2024/01/18 05:42:27;;;;;;;0.30;0.30;;;;;;;4.12;100.00;93834.78;5033535;28;20204;-80
2024/01/18 05:44:54;;;;;;;0.30;0.30;;;;;;;4.21;100.00;93811.53;5033476;28;20243;-79
2024/01/18 05:47:21;;;;;;;0.20;0.20;;;;;;;4.48;100.00;93852.66;5033285;28;20243;-80
2024/01/18 05:49:48;;;;;;;1.30;1.27;;;;;;;4.26;100.00;93819.41;5033641;28;20299;-81
2024/01/18 05:52:16;;;;;;;0.20;0.20;;;;;;;4.49;100.00;93832.78;5033005;28;20612;-81
2024/01/18 05:54:43;;;;;;;0.60;0.47;;;;;;;4.39;100.00;93855.28;5033401;28;20224;-82
2024/01/18 05:57:10;;;;;;;0.43;0.43;;;;;;;4.38;100.00;93820.72;5033384;28;20222;-82
2024/01/18 05:59:37;;;;;;;2.67;0.82;;;;;;;4.44;100.00;93859.72;5032392;28;20212;-80
2024/01/18 06:02:04;;;;;;;0.30;0.30;;;;;;;4.64;100.00;93846.59;5032866;28;20212;-81
2024/01/18 06:04:31;;;;;;;0.20;0.20;;;;;;;4.57;100.00;93840.84;5032858;28;20211;-80
2024/01/18 06:06:57;;;;;;;0.30;0.30;;;;;;;4.65;100.00;93821.31;5033377;28;20255;-81
2024/01/18 06:09:26;;;;;;;0.20;0.20;;;;;;;4.87;100.00;93806.25;5033518;28;20216;-81
2024/01/18 06:11:52;;;;;;;1.42;1.33;;;;;;;5.11;100.00;93838.81;5033618;28;20219;-82
2024/01/18 06:14:19;;;;;;;0.30;0.30;;;;;;;5.19;100.00;93840.75;5033346;28;20584;-80
2024/01/18 06:16:47;;;;;;;0.20;0.20;;;;;;;5.11;100.00;93846.09;5014974;28;20244;-81
2024/01/18 06:19:14;;;;;;;0.45;0.45;;;;;;;5.25;100.00;93849.44;5033500;28;20600;-83
2024/01/18 06:21:41;;;;;;;0.22;0.22;;;;;;;5.27;100.00;93853.41;5032957;28;20208;-82
2024/01/18 06:24:09;;;;;;;0.82;0.82;;;;;;;5.07;100.00;93812.91;5041474;28;20649;-83
2024/01/18 06:26:38;;;;;;;0.60;0.60;;;;;;;5.25;100.00;93838.69;5014903;28;20250;-81
2024/01/18 06:29:07;;;;;;;0.30;0.30;;;;;;;4.99;100.00;93842.13;5033262;28;20232;-83
2024/01/18 06:31:34;;;;;;;1.35;1.25;;;;;;;5.10;100.00;93847.19;5032426;28;20212;-82
2024/01/18 06:34:01;;;;;;;0.57;0.50;;;;;;;5.31;100.00;93838.25;5032100;28;20224;-83
2024/01/18 06:36:28;;;;;;;0.28;0.28;;;;;;;5.51;100.00;93844.09;5020466;28;20211;-82
2024/01/18 06:38:57;;;;;;;0.30;0.30;;;;;;;5.52;100.00;93827.66;5039472;28;20209;-83
2024/01/18 06:41:25;;;;;;;0.50;0.50;;;;;;;5.14;100.00;93832.03;5019347;28;20205;-81
2024/01/18 06:43:55;;;;;;;1.13;0.85;;;;;;;5.44;100.00;93820.41;5031384;28;20208;-82
2024/01/18 06:46:22;;;;;;;3.25;0.95;;;;;;;5.43;100.00;93809.97;5031482;28;20311;-82
2024/01/18 06:48:52;;;;;;;0.77;0.75;;;;;;;5.25;100.00;93801.13;5031320;28;20211;-82
2024/01/18 06:51:22;;;;;;;0.47;0.47;;;;;;;5.52;100.00;93816.94;5031412;28;20251;-83
2024/01/18 06:53:48;;;;;;;0.28;0.28;;;;;;;5.51;100.00;93815.34;5031435;28;20224;-80
2024/01/18 06:56:15;;;;;;;0.47;0.47;;;;;;;5.10;100.00;93793.50;5031537;28;20208;-83
2024/01/18 06:58:43;;;;;;;0.20;0.20;;;;;;;5.18;100.00;93817.69;5031958;28;20208;-81
2024/01/18 07:01:12;;;;;;;1.75;1.10;;;;;;;5.05;100.00;93796.34;5031418;28;20208;-83
2024/01/18 07:03:41;;;;;;;0.40;0.40;;;;;;;5.30;100.00;93795.59;5032066;28;20211;-82
2024/01/18 07:06:08;;;;;;;0.30;0.30;;;;;;;5.44;100.00;93793.56;5032135;28;20258;-82
2024/01/18 07:08:35;;;;;;;0.40;0.40;;;;;;;5.65;100.00;93799.06;5032001;28;20204;-82
2024/01/18 07:11:04;;;;;;;0.40;0.40;;;;;;;5.47;100.00;93770.63;5031768;28;20240;-82
2024/01/18 07:13:31;;;;;;;0.38;0.38;;;;;;;5.55;100.00;93776.00;5032561;28;20228;-82
2024/01/18 07:15:58;;;;;;;1.63;1.52;;;;;;;5.75;100.00;93757.66;5032043;28;20222;-81
2024/01/18 07:18:26;;;;;;;0.60;0.60;;;;;;;5.54;100.00;93749.47;5031897;28;20223;-81
2024/01/18 07:20:53;;;;;;;0.75;0.50;;;;;;;5.76;100.00;93740.41;5031858;28;20215;-82
2024/01/18 07:23:20;;;;;;;0.40;0.40;;;;;;;5.87;100.00;93728.25;5031524;28;20644;-82
2024/01/18 07:25:48;;;;;;;0.30;0.30;;;;;;;6.07;100.00;93722.19;5030945;28;20215;-82
2024/01/18 07:28:14;;;;;;;1.90;0.85;;;;;;;6.37;100.00;93698.84;5031400;28;20243;-82
2024/01/18 07:30:41;;;;;;;0.25;0.25;;;;;;;6.21;100.00;93693.22;5031545;28;20220;-83
2024/01/18 07:33:08;;;;;;;0.30;0.30;;;;;;;6.30;100.00;93702.03;5032552;28;20239;-81
2024/01/18 07:35:36;;;;;;;2.17;1.50;;;;;;;5.92;100.00;93669.75;5035413;28;20234;-82
2024/01/18 07:38:04;;;;;;;1.38;1.27;;;;;;;5.98;100.00;93690.00;5022766;28;20207;-83
2024/01/18 07:40:31;;;;;;;0.20;0.20;;;;;;;6.03;100.00;93675.56;5035264;28;20215;-83
2024/01/18 07:42:57;;;;;;;0.63;0.63;;;;;;;6.00;100.00;93652.03;5035339;28;20205;-81
2024/01/18 07:45:25;;;;;;;0.68;0.68;;;;;;;6.27;100.00;93658.88;5035127;28;20308;-82
2024/01/18 07:47:51;;;;;;;0.68;0.68;;;;;;;6.17;100.00;93648.47;5035512;28;20239;-80
2024/01/18 07:50:18;;;;;;;0.40;0.40;;;;;;;6.36;100.00;93663.09;5035197;28;20212;-81
2024/01/18 07:52:46;;;;;;;0.80;0.75;;;;;;;6.21;100.00;93628.69;5035866;28;20665;-81
2024/01/18 07:55:13;;;;;;;0.30;0.30;;;;;;;6.63;100.00;93618.00;5034989;28;20235;-82
2024/01/18 07:57:40;;;;;;;0.20;0.20;;;;;;;6.98;100.00;93654.28;5034944;28;20677;-82
2024/01/18 08:00:08;;;;;;;0.30;0.30;;;;;;;6.68;100.00;93615.91;5030040;28;20403;-82
2024/01/18 08:02:35;;;;;;;0.40;0.40;;;;;;;6.76;100.00;93628.50;5035208;28;20244;-82
2024/01/18 08:05:02;;;;;;;1.25;1.25;;;;;;;6.34;100.00;93594.59;5035258;28;20613;-79
2024/01/18 08:07:29;;;;;;;1.55;1.33;;;;;;;6.53;100.00;93618.38;5035519;28;20208;-82
2024/01/18 08:09:57;;;;;;;1.00;1.00;;;;;;;6.74;100.00;93619.16;5034493;28;20607;-83
2024/01/18 08:12:24;;;;;;;0.98;0.98;;;;;;;6.74;100.00;93613.78;5026593;28;20657;-84
2024/01/18 08:14:51;;;;;;;0.35;0.35;;;;;;;6.73;100.00;93617.59;5042838;28;20692;-84
2024/01/18 08:17:17;;;;;;;0.25;0.25;;;;;;;6.85;100.00;93614.97;5037435;28;20208;-81
2024/01/18 08:19:44;;;;;;;0.55;0.55;;;;;;;7.00;100.00;93637.81;5036944;28;20208;-83
2024/01/18 08:22:12;;;;;;;0.20;0.20;;;;;;;7.08;100.00;93618.13;5029998;28;20212;-82
2024/01/18 08:24:39;;;;;;;0.63;0.63;;;;;;;7.31;100.00;93642.78;5031838;28;20262;-84
2024/01/18 08:27:07;;;;;;;0.70;0.70;;;;;;;6.87;100.00;93601.19;5036484;28;20727;-83
2024/01/18 08:29:34;;;;;;;2.47;1.75;;;;;;;6.42;100.00;93586.47;5034880;28;20224;-84
2024/01/18 08:32:02;;;;;;;1.13;0.95;;;;;;;6.58;100.00;93621.66;5034955;28;20223;-85
2024/01/18 08:34:28;;;;;;;0.68;0.68;;;;;;;6.41;100.00;93619.88;5032413;28;20671;-81
2024/01/18 08:36:55;;;;;;;4.82;2.13;;;;;;;6.40;100.00;93598.69;5034252;28;20581;-82
2024/01/18 08:39:23;;;;;;;0.60;0.60;;;;;;;6.65;100.00;93621.13;5034083;28;20674;-82
2024/01/18 08:41:50;;;;;;;0.50;0.50;;;;;;;6.40;100.00;93621.00;5034547;28;20650;-81
2024/01/18 08:44:19;;;;;;;0.98;0.98;;;;;;;6.34;100.00;93608.03;5033129;28;20216;-83
2024/01/18 08:46:46;;;;;;;0.38;0.38;;;;;;;6.55;100.00;93637.69;5035738;28;20220;-82
2024/01/18 08:49:13;;;;;;;1.75;1.15;;;;;;;6.19;100.00;93604.00;5034750;28;20540;-83
2024/01/18 08:51:41;;;;;;;0.40;0.40;;;;;;;6.59;100.00;93609.78;5035603;28;20611;-81
2024/01/18 08:54:08;;;;;;;0.63;0.60;;;;;;;6.78;100.00;93630.88;5033573;28;20294;-84
2024/01/18 08:56:35;;;;;;;0.40;0.40;;;;;;;6.65;100.00;93605.00;5034890;28;20212;-84
2024/01/18 08:59:02;;;;;;;1.13;1.00;;;;;;;6.50;100.00;93614.44;5034093;28;20311;-81
2024/01/18 09:01:30;;;;;;;0.70;0.70;;;;;;;6.73;100.00;93620.28;5033668;28;20567;-84
2024/01/18 09:03:57;;;;;;;0.50;0.50;;;;;;;6.75;100.00;93620.75;5033929;28;20286;-83
2024/01/18 09:06:24;;;;;;;8.38;2.60;;;;;;;7.28;100.00;93627.28;5034159;28;20208;-81
2024/01/18 09:08:50;;;;;;;4.90;1.13;;;;;;;7.26;100.00;93613.34;5033969;28;20212;-83
2024/01/18 09:11:17;;;;;;;0.95;0.95;;;;;;;7.24;100.00;93623.69;5034472;28;20204;-81
2024/01/18 09:13:44;;;;;;;0.70;0.70;;;;;;;7.42;100.00;93617.00;5032308;28;20208;-82
2024/01/18 09:16:16;;;;;;;6.32;2.08;;;;;;;7.57;100.00;93597.50;5033488;28;20228;-82
2024/01/18 09:18:50;;;;;;;0.50;0.50;;;;;;;7.87;100.00;93611.59;5025843;28;20312;-80
2024/01/18 09:21:17;;;;;;;0.47;0.47;;;;;;;8.09;100.00;93594.97;5031239;28;20206;-80
2024/01/18 09:23:44;;;;;;;0.73;0.73;;;;;;;7.91;100.00;93595.53;5023803;28;20216;-82
2024/01/18 09:26:11;;;;;;;1.73;0.73;;;;;;;7.78;100.00;93578.56;5032718;28;20200;-80
2024/01/18 09:28:37;;;;;;;0.45;0.43;;;;;;;7.92;100.00;93594.44;5032355;28;20208;-84
2024/01/18 09:31:04;;;;;;;0.45;0.45;;;;;;;7.92;99.49;93580.94;5033356;28;20215;-82
2024/01/18 09:33:31;;;;;;;0.70;0.70;;;;;;;8.02;100.00;93558.94;5033775;28;20232;-85
2024/01/18 09:36:01;;;;;;;0.28;0.28;;;;;;;8.61;100.00;93574.63;5034292;28;20670;-87
2024/01/18 09:38:29;;;;;;;2.20;0.63;;;;;;;8.94;97.83;93537.41;5033940;28;20266;-84
2024/01/18 09:41:03;;;;;;;0.70;0.70;;;;;;;9.20;97.00;93532.31;5033722;28;20210;-84
2024/01/18 09:43:35;;;;;;;1.25;0.77;;;;;;;10.04;95.99;93539.44;5031752;28;20204;-86
2024/01/18 09:46:07;;;;;;;0.50;0.50;;;;;;;10.67;91.54;93521.97;5032807;28;20251;-85
2024/01/18 09:48:34;;;;;;;0.20;0.20;;;;;;;10.95;88.53;93504.72;5034175;28;20208;-86
2024/01/18 09:51:06;;;;;;;4.88;2.53;;;;;;;11.43;86.92;93502.53;5035790;28;20612;-79
2024/01/18 09:53:35;;;;;;;8.82;2.67;;;;;;;11.30;87.66;93489.16;5030605;28;20298;-83
2024/01/18 09:56:15;;;;;;;0.75;0.75;;;;;;;11.24;85.59;93501.41;5032434;28;20239;-85
2024/01/18 09:58:42;;;;;;;2.30;0.85;;;;;;;10.41;88.68;93488.50;5034899;28;20569;-83
2024/01/18 10:01:18;;;;;;;0.45;0.45;;;;;;;10.56;87.78;93483.03;5033098;28;20247;-79
2024/01/18 10:03:45;;;;;;;2.28;1.63;;;;;;;10.93;87.88;93488.06;5032575;28;20218;-79
2024/01/18 10:06:13;;;;;;;0.68;0.68;;;;;;;11.24;86.85;93479.72;5031740;28;20220;-82
2024/01/18 10:08:40;;;;;;;3.70;1.00;;;;;;;11.15;84.34;93454.00;5033614;28;20242;-79
2024/01/18 10:11:08;;;;;;;0.40;0.40;;;;;;;11.18;84.83;93454.06;5031427;28;20211;-78
2024/01/18 10:13:49;;;;;;;0.40;0.40;;;;;;;11.85;83.48;93459.88;5030571;28;20232;-81
2024/01/18 10:16:27;;;;;;;2.55;2.22;;;;;;;11.98;82.42;93425.19;5031137;28;20208;-82
2024/01/18 10:18:54;;;;;;;2.50;1.83;;;;;;;12.06;81.87;93429.56;5031318;28;20295;-83
2024/01/18 10:21:24;;;;;;;5.13;2.28;;;;;;;12.05;81.49;93398.91;5034325;28;20216;-84
2024/01/18 10:23:53;;;;;;;6.00;2.83;;;;;;;12.66;80.69;93435.81;5035826;28;20212;-84
2024/01/18 10:26:22;;;;;;;2.83;2.15;;;;;;;12.31;80.89;93405.47;5037630;28;20263;-82
2024/01/18 10:28:49;;;;;;;6.57;3.15;;;;;;;11.82;81.88;93406.34;5034012;28;20200;-84
2024/01/18 10:31:16;;;;;;;3.67;1.85;;;;;;;11.73;83.05;93408.50;5033872;28;20212;-84
2024/01/18 10:33:43;;;;;;;4.63;2.97;;;;;;;11.35;83.44;93391.22;5032710;28;20236;-85
2024/01/18 10:36:10;;;;;;;1.90;1.58;;;;;;;11.42;84.33;93381.66;5033811;28;20204;-78
2024/01/18 10:38:41;;;;;;;5.38;2.42;;;;;;;11.94;83.48;93398.00;5028700;28;20204;-82
2024/01/18 10:41:08;;;;;;;2.85;2.00;;;;;;;12.54;81.39;93387.16;5031844;28;20208;-82
2024/01/18 10:43:36;;;;;;;3.53;2.03;;;;;;;12.52;80.33;93370.44;5027276;28;20514;-81
2024/01/18 10:46:04;;;;;;;3.05;2.75;;;;;;;12.72;81.36;93366.38;5019619;28;21037;-79
2024/01/18 10:48:32;;;;;;;2.63;2.13;;;;;;;12.92;79.32;93374.38;5031093;28;20613;-80
2024/01/18 10:50:59;;;;;;;2.38;2.00;;;;;;;13.42;78.72;93386.53;5031047;28;20620;-79
2024/01/18 10:53:29;;;;;;;3.15;2.10;;;;;;;13.26;77.23;93366.94;5031768;28;20212;-83
2024/01/18 10:55:58;;;;;;;5.10;2.65;;;;;;;12.74;79.68;93347.78;5019979;28;20208;-85
2024/01/18 10:58:24;;;;;;;4.03;2.70;;;;;;;13.23;78.62;93357.63;5033218;28;20213;-85
2024/01/18 11:00:52;;;;;;;2.28;1.77;;;;;;;13.74;77.59;93338.59;5031931;28;20208;-84
2024/01/18 11:03:20;;;;;;;4.80;2.30;;;;;;;14.31;75.76;93355.25;5032079;28;20208;-85
2024/01/18 11:05:49;;;;;;;4.30;2.22;;;;;;;14.45;74.64;93332.78;5032644;28;20228;-84
2024/01/18 11:08:18;;;;;;;3.55;2.25;;;;;;;14.42;73.93;93317.97;5013672;28;20287;-84
2024/01/18 11:10:48;;;;;;;12.45;1.63;;;;;;;14.58;73.64;93325.81;5031127;28;20208;-80
2024/01/18 11:13:19;;;;;;;4.15;2.55;;;;;;;14.30;75.57;93320.22;5031725;28;20208;-83
2024/01/18 11:15:47;;;;;;;3.72;2.08;;;;;;;13.86;76.11;93323.88;5032182;28;20185;-83
2024/01/18 11:18:21;;;;;;;5.53;2.33;;;;;;;13.57;77.24;93286.75;5032169;28;20274;-84
2024/01/18 11:21:06;;;;;;;2.92;1.75;;;;;;;14.79;73.81;93287.69;5032452;28;20284;-84
2024/01/18 11:23:39;;;;;;;3.13;2.15;;;;;;;15.47;71.65;93276.81;5022924;28;20200;-84
2024/01/18 11:26:07;;;;;;;2.55;1.73;;;;;;;15.42;70.86;93269.03;5031059;28;20246;-84
2024/01/18 11:28:39;;;;;;;3.28;1.58;;;;;;;15.43;70.96;93227.72;5031638;28;20307;-84
2024/01/18 11:31:06;;;;;;;1.55;1.15;;;;;;;16.13;67.33;93258.75;5031512;28;20231;-85
2024/01/18 11:33:33;;;;;;;0.60;0.55;;;;;;;16.39;66.89;93232.13;5030990;28;20240;-82
2024/01/18 11:36:04;;;;;;;0.75;0.70;;;;;;;16.77;64.10;93269.44;5031772;28;20209;-83